4 De Coeur — FW6599 — position and weather

sailwx.info

Track history (hours):
 
Tides and Currents Weather Stations Pressure Air Temp Water Temp Dewpoint Dewpoint Depression Visibility Wind Speed Wind Dir Waves Ship Positions

4 De Coeur

Last reported at 2016-Jun-23 11:33 UTC. Time now 2016-Jun-29 20:14 UTC.
Position N 46°17' W 001°42'.

Length 11 m.

Type: Pleasure craft. MMSI: 227523340.

Date/timePositionNaut miles runAvg speedWind from/ knotsBaromVisibWave heightAir tempDewpointWater temp
2016-Jun-23 11:33N 46°17' W 001°42'5 4.7
2016-Jun-23 10:33N 46°21' W 001°44'5 5.1
2016-Jun-23 09:33N 46°26' W 001°46'4 4.1
2016-Jun-23 08:33N 46°30' W 001°48'0 0.3
2016-Jun-23 07:33N 46°30' W 001°47'0 0.0
2016-Jun-22 23:31N 46°30' W 001°47'0 0.0
2016-Jun-22 22:31N 46°30' W 001°47'0 0.0
2016-Jun-22 21:31N 46°30' W 001°47'0 0.0
2016-Jun-22 20:31N 46°30' W 001°47'0 0.0
2016-Jun-22 19:31N 46°30' W 001°47'0 0.0
2016-Jun-22 18:31N 46°30' W 001°47'0 0.0
2016-Jun-22 17:31N 46°30' W 001°47'0 0.0
2016-Jun-22 16:31N 46°30' W 001°47'0 0.0
2016-Jun-22 15:31N 46°30' W 001°47'0 0.0
2016-Jun-22 14:33N 46°30' W 001°47'4 3.7
2016-Jun-22 13:33N 46°30' W 001°53'5 4.9
2016-Jun-22 12:33N 46°32' W 001°59'11 5.0
2016-Jun-22 10:18N 46°40' W 002°11'26 1.1
2016-Jun-21 10:31N 47°04' W 002°25'4 4.2
2016-Jun-21 09:33N 47°08' W 002°24'6 5.5
2016-Jun-21 08:31N 47°13' W 002°23'3 2.2
2016-Jun-21 07:21N 47°15' W 002°21'0 0.0
2016-Jun-21 04:31N 47°15' W 002°21'0 0.0
2016-Jun-21 03:33N 47°15' W 002°21'0 0.0
2016-Jun-21 02:21N 47°15' W 002°21'0 0.0
2016-Jun-21 01:27N 47°15' W 002°21'0 0.0
2016-Jun-21 00:33N 47°15' W 002°21'0 0.0
2016-Jun-20 23:33N 47°15' W 002°21'0 0.0
2016-Jun-20 22:33N 47°15' W 002°21'0 0.0
2016-Jun-20 21:34N 47°15' W 002°21'0 0.0
2016-Jun-20 20:31N 47°15' W 002°21'0 0.0
2016-Jun-20 19:33N 47°15' W 002°21'0 0.0
2016-Jun-20 18:33N 47°15' W 002°21'0 0.0
2016-Jun-20 17:21N 47°15' W 002°21'0 0.0
2016-Jun-20 16:33N 47°15' W 002°21'0 0.0
2016-Jun-20 15:33N 47°15' W 002°21'0 0.0
2016-Jun-20 14:31N 47°15' W 002°21'0 0.0
2016-Jun-20 13:31N 47°15' W 002°21'0 0.0
2016-Jun-20 12:33N 47°15' W 002°21'0 0.0
2016-Jun-20 11:34N 47°15' W 002°21'0 0.0
2016-Jun-20 10:27N 47°15' W 002°21'0 0.0
2016-Jun-20 09:14N 47°15' W 002°21'0 0.0
2016-Jun-20 08:26N 47°15' W 002°21'0 0.0
2016-Jun-20 07:27N 47°15' W 002°21'0 0.0
2016-Jun-20 06:27N 47°15' W 002°21'0 0.0
2016-Jun-20 05:31N 47°15' W 002°21'0 0.0
2016-Jun-20 04:27N 47°15' W 002°21'0 0.0
2016-Jun-20 03:34N 47°15' W 002°21'0 0.0
2016-Jun-20 02:33N 47°15' W 002°21'0 0.0
2016-Jun-20 01:13N 47°15' W 002°21'0 0.0
2016-Jun-20 00:33N 47°15' W 002°21'0 0.0
2016-Jun-19 22:22N 47°15' W 002°21'0 0.0
2016-Jun-19 21:34N 47°15' W 002°21'0 0.0
2016-Jun-19 20:33N 47°15' W 002°21'0 0.0
2016-Jun-19 19:33N 47°15' W 002°21'1 1.3
2016-Jun-19 18:34N 47°15' W 002°23'4 4.1
2016-Jun-19 17:33N 47°15' W 002°29'5 4.9
2016-Jun-19 16:33N 47°18' W 002°35'5 5.0
2016-Jun-19 15:33N 47°21' W 002°41'5 5.5
2016-Jun-19 14:33N 47°24' W 002°48'6 6.2
2016-Jun-19 13:33N 47°29' W 002°53'4 3.4
2016-Jun-19 12:32N 47°33' W 002°54'0 0.0
2016-Jun-19 11:32N 47°33' W 002°54'0 0.0
2016-Jun-19 10:32N 47°33' W 002°54'0 0.0
2016-Jun-19 09:32N 47°33' W 002°54'0 0.0
2016-Jun-19 08:32N 47°33' W 002°54'0 0.0
2016-Jun-19 07:33N 47°33' W 002°54'0 0.0
2016-Jun-19 06:32N 47°33' W 002°54'0 0.0
2016-Jun-19 05:32N 47°33' W 002°54'0 0.0
2016-Jun-19 04:32N 47°33' W 002°54'0 0.0
2016-Jun-19 03:32N 47°33' W 002°54'0 0.0
2016-Jun-19 02:32N 47°33' W 002°54'0 0.0
2016-Jun-19 01:32N 47°33' W 002°54'0 0.0
2016-Jun-19 00:32N 47°33' W 002°54'0 0.0
2016-Jun-18 23:33N 47°33' W 002°54'0 0.0
2016-Jun-18 22:33N 47°33' W 002°54'0 0.0
2016-Jun-18 21:33N 47°33' W 002°54'0 0.0
2016-Jun-18 20:33N 47°33' W 002°54'0 0.0
2016-Jun-18 19:33N 47°33' W 002°54'0 0.0
2016-Jun-18 18:33N 47°33' W 002°54'0 0.0
2016-Jun-18 17:32N 47°33' W 002°54'0 0.0
2016-Jun-18 16:32N 47°33' W 002°54'0 0.0
2016-Jun-18 15:32N 47°33' W 002°54'1 1.0
2016-Jun-18 14:33N 47°32' W 002°55'7 7.5
2016-Jun-18 13:34N 47°24' W 002°56'2 1.9
2016-Jun-18 12:33N 47°26' W 002°56'6 6.1
2016-Jun-18 11:34N 47°32' W 002°55'1 0.6
2016-Jun-18 10:32N 47°33' W 002°54'0 0.0
2016-Jun-18 09:32N 47°33' W 002°54'0 0.0
2016-Jun-18 08:32N 47°33' W 002°54'0 0.0
2016-Jun-18 07:33N 47°33' W 002°54'0 0.0
2016-Jun-18 06:33N 47°33' W 002°54'0 0.0
2016-Jun-18 05:33N 47°33' W 002°54'0 0.0
2016-Jun-18 04:33N 47°33' W 002°54'0 0.0
2016-Jun-18 03:33N 47°33' W 002°54'0 0.0
2016-Jun-18 02:33N 47°33' W 002°54'0 0.0
2016-Jun-18 01:33N 47°33' W 002°54'0 0.0
2016-Jun-18 00:32N 47°33' W 002°54'0 0.0
2016-Jun-17 23:32N 47°33' W 002°54'0 0.0
2016-Jun-17 22:32N 47°33' W 002°54'0 0.0
2016-Jun-17 21:32N 47°33' W 002°54'0 0.0
2016-Jun-17 20:32N 47°33' W 002°54'0 0.0
2016-Jun-17 19:32N 47°33' W 002°54'0 0.0
2016-Jun-17 18:33N 47°33' W 002°54'0 0.0
2016-Jun-17 17:32N 47°33' W 002°54'0 0.0
2016-Jun-17 16:33N 47°33' W 002°54'0 0.0
2016-Jun-17 15:33N 47°33' W 002°54'0 0.0
2016-Jun-17 14:33N 47°33' W 002°54'0 0.0
2016-Jun-17 13:32N 47°33' W 002°54'0 0.0
2016-Jun-17 12:32N 47°33' W 002°54'0 0.0
2016-Jun-17 11:32N 47°33' W 002°54'0 0.0
2016-Jun-17 10:32N 47°33' W 002°54'0 0.0
2016-Jun-17 09:32N 47°33' W 002°54'0 0.0
2016-Jun-17 08:32N 47°33' W 002°54'0 0.0
2016-Jun-17 07:32N 47°33' W 002°54'0 0.0
2016-Jun-17 06:33N 47°33' W 002°54'0 0.0
2016-Jun-17 05:33N 47°33' W 002°54'0 0.0
2016-Jun-17 04:33N 47°33' W 002°54'0 0.0
2016-Jun-17 03:32N 47°33' W 002°54'0 0.0
2016-Jun-17 02:33N 47°33' W 002°54'0 0.0
2016-Jun-17 01:32N 47°33' W 002°54'0 0.0
2016-Jun-17 00:32N 47°33' W 002°54'0 0.0
2016-Jun-16 23:32N 47°33' W 002°54'0 0.0
2016-Jun-16 22:32N 47°33' W 002°54'0 0.0
2016-Jun-16 21:32N 47°33' W 002°54'0 0.0
2016-Jun-16 20:33N 47°33' W 002°54'0 0.0
2016-Jun-16 19:33N 47°33' W 002°54'0 0.0
2016-Jun-16 18:33N 47°33' W 002°54'0 0.0
2016-Jun-16 17:33N 47°33' W 002°54'0 0.0
2016-Jun-16 16:33N 47°33' W 002°54'0 0.0
2016-Jun-16 15:33N 47°33' W 002°54'0 0.0
2016-Jun-16 14:33N 47°33' W 002°54'0 0.0
2016-Jun-16 13:33N 47°33' W 002°54'0 0.0
2016-Jun-16 12:33N 47°33' W 002°54'0 0.0
2016-Jun-16 11:33N 47°33' W 002°54'0 0.0
2016-Jun-16 10:32N 47°33' W 002°54'0 0.0
2016-Jun-16 09:32N 47°33' W 002°54'0 0.2
2016-Jun-16 08:29N 47°33' W 002°54'0 0.2
2016-Jun-16 07:33N 47°33' W 002°54'0 0.0
2016-Jun-16 06:33N 47°33' W 002°54'0 0.0
2016-Jun-16 05:33N 47°33' W 002°54'0 0.0
2016-Jun-16 04:33N 47°33' W 002°54'0 0.0
2016-Jun-16 03:33N 47°33' W 002°54'0 0.0
2016-Jun-16 02:33N 47°33' W 002°54'0 0.0
2016-Jun-16 01:33N 47°33' W 002°54'0 0.0
2016-Jun-16 00:33N 47°33' W 002°54'0 0.0
2016-Jun-15 23:33N 47°33' W 002°54'0 0.0
2016-Jun-15 22:33N 47°33' W 002°54'0 0.0
2016-Jun-15 21:33N 47°33' W 002°54'0 0.0
2016-Jun-15 20:33N 47°33' W 002°54'0 0.0
2016-Jun-15 19:33N 47°33' W 002°54'0 0.0
2016-Jun-15 18:33N 47°33' W 002°54'0 0.0
2016-Jun-15 17:33N 47°33' W 002°54'0 0.0
2016-Jun-15 16:33N 47°33' W 002°54'0 0.0
2016-Jun-15 15:33N 47°33' W 002°54'0 0.0
2016-Jun-15 14:33N 47°33' W 002°54'0 0.0
2016-Jun-15 13:33N 47°33' W 002°54'0 0.0
2016-Jun-15 12:33N 47°33' W 002°54'  
Track history (hours):
 
Tides and Currents Weather Stations Pressure Air Temp Water Temp Dewpoint Dewpoint Depression Visibility Wind Speed Wind Dir Waves Ship Positions

4 De Coeur

Last reported at 2016-Jun-23 11:33 UTC. Time now 2016-Jun-29 20:14 UTC.
Position N 46°17' W 001°42'.

Length 11 m.

Type: Pleasure craft. MMSI: 227523340.

Date/timePositionNaut miles runAvg speedWind from/ knotsBaromVisibWave heightAir tempDewpointWater temp
2016-Jun-23 11:33N 46°17' W 001°42'5 4.7
2016-Jun-23 10:33N 46°21' W 001°44'5 5.1
2016-Jun-23 09:33N 46°26' W 001°46'4 4.1
2016-Jun-23 08:33N 46°30' W 001°48'0 0.3
2016-Jun-23 07:33N 46°30' W 001°47'0 0.0
2016-Jun-22 23:31N 46°30' W 001°47'0 0.0
2016-Jun-22 22:31N 46°30' W 001°47'0 0.0
2016-Jun-22 21:31N 46°30' W 001°47'0 0.0
2016-Jun-22 20:31N 46°30' W 001°47'0 0.0
2016-Jun-22 19:31N 46°30' W 001°47'0 0.0
2016-Jun-22 18:31N 46°30' W 001°47'0 0.0
2016-Jun-22 17:31N 46°30' W 001°47'0 0.0
2016-Jun-22 16:31N 46°30' W 001°47'0 0.0
2016-Jun-22 15:31N 46°30' W 001°47'0 0.0
2016-Jun-22 14:33N 46°30' W 001°47'4 3.7
2016-Jun-22 13:33N 46°30' W 001°53'5 4.9
2016-Jun-22 12:33N 46°32' W 001°59'11 5.0
2016-Jun-22 10:18N 46°40' W 002°11'26 1.1
2016-Jun-21 10:31N 47°04' W 002°25'4 4.2
2016-Jun-21 09:33N 47°08' W 002°24'6 5.5
2016-Jun-21 08:31N 47°13' W 002°23'3 2.2
2016-Jun-21 07:21N 47°15' W 002°21'0 0.0
2016-Jun-21 04:31N 47°15' W 002°21'0 0.0
2016-Jun-21 03:33N 47°15' W 002°21'0 0.0
2016-Jun-21 02:21N 47°15' W 002°21'0 0.0
2016-Jun-21 01:27N 47°15' W 002°21'0 0.0
2016-Jun-21 00:33N 47°15' W 002°21'0 0.0
2016-Jun-20 23:33N 47°15' W 002°21'0 0.0
2016-Jun-20 22:33N 47°15' W 002°21'0 0.0
2016-Jun-20 21:34N 47°15' W 002°21'0 0.0
2016-Jun-20 20:31N 47°15' W 002°21'0 0.0
2016-Jun-20 19:33N 47°15' W 002°21'0 0.0
2016-Jun-20 18:33N 47°15' W 002°21'0 0.0
2016-Jun-20 17:21N 47°15' W 002°21'0 0.0
2016-Jun-20 16:33N 47°15' W 002°21'0 0.0
2016-Jun-20 15:33N 47°15' W 002°21'0 0.0
2016-Jun-20 14:31N 47°15' W 002°21'0 0.0
2016-Jun-20 13:31N 47°15' W 002°21'0 0.0
2016-Jun-20 12:33N 47°15' W 002°21'0 0.0
2016-Jun-20 11:34N 47°15' W 002°21'0 0.0
2016-Jun-20 10:27N 47°15' W 002°21'0 0.0
2016-Jun-20 09:14N 47°15' W 002°21'0 0.0
2016-Jun-20 08:26N 47°15' W 002°21'0 0.0
2016-Jun-20 07:27N 47°15' W 002°21'0 0.0
2016-Jun-20 06:27N 47°15' W 002°21'0 0.0
2016-Jun-20 05:31N 47°15' W 002°21'0 0.0
2016-Jun-20 04:27N 47°15' W 002°21'0 0.0
2016-Jun-20 03:34N 47°15' W 002°21'0 0.0
2016-Jun-20 02:33N 47°15' W 002°21'0 0.0
2016-Jun-20 01:13N 47°15' W 002°21'0 0.0
2016-Jun-20 00:33N 47°15' W 002°21'0 0.0
2016-Jun-19 22:22N 47°15' W 002°21'0 0.0
2016-Jun-19 21:34N 47°15' W 002°21'0 0.0
2016-Jun-19 20:33N 47°15' W 002°21'0 0.0
2016-Jun-19 19:33N 47°15' W 002°21'1 1.3
2016-Jun-19 18:34N 47°15' W 002°23'4 4.1
2016-Jun-19 17:33N 47°15' W 002°29'5 4.9
2016-Jun-19 16:33N 47°18' W 002°35'5 5.0
2016-Jun-19 15:33N 47°21' W 002°41'5 5.5
2016-Jun-19 14:33N 47°24' W 002°48'6 6.2
2016-Jun-19 13:33N 47°29' W 002°53'4 3.4
2016-Jun-19 12:32N 47°33' W 002°54'0 0.0
2016-Jun-19 11:32N 47°33' W 002°54'0 0.0
2016-Jun-19 10:32N 47°33' W 002°54'0 0.0
2016-Jun-19 09:32N 47°33' W 002°54'0 0.0
2016-Jun-19 08:32N 47°33' W 002°54'0 0.0
2016-Jun-19 07:33N 47°33' W 002°54'0 0.0
2016-Jun-19 06:32N 47°33' W 002°54'0 0.0
2016-Jun-19 05:32N 47°33' W 002°54'0 0.0
2016-Jun-19 04:32N 47°33' W 002°54'0 0.0
2016-Jun-19 03:32N 47°33' W 002°54'0 0.0
2016-Jun-19 02:32N 47°33' W 002°54'0 0.0
2016-Jun-19 01:32N 47°33' W 002°54'0 0.0
2016-Jun-19 00:32N 47°33' W 002°54'0 0.0
2016-Jun-18 23:33N 47°33' W 002°54'0 0.0
2016-Jun-18 22:33N 47°33' W 002°54'0 0.0
2016-Jun-18 21:33N 47°33' W 002°54'0 0.0
2016-Jun-18 20:33N 47°33' W 002°54'0 0.0
2016-Jun-18 19:33N 47°33' W 002°54'0 0.0
2016-Jun-18 18:33N 47°33' W 002°54'0 0.0
2016-Jun-18 17:32N 47°33' W 002°54'0 0.0
2016-Jun-18 16:32N 47°33' W 002°54'0 0.0
2016-Jun-18 15:32N 47°33' W 002°54'1 1.0
2016-Jun-18 14:33N 47°32' W 002°55'7 7.5
2016-Jun-18 13:34N 47°24' W 002°56'2 1.9
2016-Jun-18 12:33N 47°26' W 002°56'6 6.1
2016-Jun-18 11:34N 47°32' W 002°55'1 0.6
2016-Jun-18 10:32N 47°33' W 002°54'0 0.0
2016-Jun-18 09:32N 47°33' W 002°54'0 0.0
2016-Jun-18 08:32N 47°33' W 002°54'0 0.0
2016-Jun-18 07:33N 47°33' W 002°54'0 0.0
2016-Jun-18 06:33N 47°33' W 002°54'0 0.0
2016-Jun-18 05:33N 47°33' W 002°54'0 0.0
2016-Jun-18 04:33N 47°33' W 002°54'0 0.0
2016-Jun-18 03:33N 47°33' W 002°54'0 0.0
2016-Jun-18 02:33N 47°33' W 002°54'0 0.0
2016-Jun-18 01:33N 47°33' W 002°54'0 0.0
2016-Jun-18 00:32N 47°33' W 002°54'0 0.0
2016-Jun-17 23:32N 47°33' W 002°54'0 0.0
2016-Jun-17 22:32N 47°33' W 002°54'0 0.0
2016-Jun-17 21:32N 47°33' W 002°54'0 0.0
2016-Jun-17 20:32N 47°33' W 002°54'0 0.0
2016-Jun-17 19:32N 47°33' W 002°54'0 0.0
2016-Jun-17 18:33N 47°33' W 002°54'0 0.0
2016-Jun-17 17:32N 47°33' W 002°54'0 0.0
2016-Jun-17 16:33N 47°33' W 002°54'0 0.0
2016-Jun-17 15:33N 47°33' W 002°54'0 0.0
2016-Jun-17 14:33N 47°33' W 002°54'0 0.0
2016-Jun-17 13:32N 47°33' W 002°54'0 0.0
2016-Jun-17 12:32N 47°33' W 002°54'0 0.0
2016-Jun-17 11:32N 47°33' W 002°54'0 0.0
2016-Jun-17 10:32N 47°33' W 002°54'0 0.0
2016-Jun-17 09:32N 47°33' W 002°54'0 0.0
2016-Jun-17 08:32N 47°33' W 002°54'0 0.0
2016-Jun-17 07:32N 47°33' W 002°54'0 0.0
2016-Jun-17 06:33N 47°33' W 002°54'0 0.0
2016-Jun-17 05:33N 47°33' W 002°54'0 0.0
2016-Jun-17 04:33N 47°33' W 002°54'0 0.0
2016-Jun-17 03:32N 47°33' W 002°54'0 0.0
2016-Jun-17 02:33N 47°33' W 002°54'0 0.0
2016-Jun-17 01:32N 47°33' W 002°54'0 0.0
2016-Jun-17 00:32N 47°33' W 002°54'0 0.0
2016-Jun-16 23:32N 47°33' W 002°54'0 0.0
2016-Jun-16 22:32N 47°33' W 002°54'0 0.0
2016-Jun-16 21:32N 47°33' W 002°54'0 0.0
2016-Jun-16 20:33N 47°33' W 002°54'0 0.0
2016-Jun-16 19:33N 47°33' W 002°54'0 0.0
2016-Jun-16 18:33N 47°33' W 002°54'0 0.0
2016-Jun-16 17:33N 47°33' W 002°54'0 0.0
2016-Jun-16 16:33N 47°33' W 002°54'0 0.0
2016-Jun-16 15:33N 47°33' W 002°54'0 0.0
2016-Jun-16 14:33N 47°33' W 002°54'0 0.0
2016-Jun-16 13:33N 47°33' W 002°54'0 0.0
2016-Jun-16 12:33N 47°33' W 002°54'0 0.0
2016-Jun-16 11:33N 47°33' W 002°54'0 0.0
2016-Jun-16 10:32N 47°33' W 002°54'0 0.0
2016-Jun-16 09:32N 47°33' W 002°54'0 0.2
2016-Jun-16 08:29N 47°33' W 002°54'0 0.2
2016-Jun-16 07:33N 47°33' W 002°54'0 0.0
2016-Jun-16 06:33N 47°33' W 002°54'0 0.0
2016-Jun-16 05:33N 47°33' W 002°54'0 0.0
2016-Jun-16 04:33N 47°33' W 002°54'0 0.0
2016-Jun-16 03:33N 47°33' W 002°54'0 0.0
2016-Jun-16 02:33N 47°33' W 002°54'0 0.0
2016-Jun-16 01:33N 47°33' W 002°54'0 0.0
2016-Jun-16 00:33N 47°33' W 002°54'0 0.0
2016-Jun-15 23:33N 47°33' W 002°54'0 0.0
2016-Jun-15 22:33N 47°33' W 002°54'0 0.0
2016-Jun-15 21:33N 47°33' W 002°54'0 0.0
2016-Jun-15 20:33N 47°33' W 002°54'0 0.0
2016-Jun-15 19:33N 47°33' W 002°54'0 0.0
2016-Jun-15 18:33N 47°33' W 002°54'0 0.0
2016-Jun-15 17:33N 47°33' W 002°54'0 0.0
2016-Jun-15 16:33N 47°33' W 002°54'0 0.0
2016-Jun-15 15:33N 47°33' W 002°54'0 0.0
2016-Jun-15 14:33N 47°33' W 002°54'0 0.0
2016-Jun-15 13:33N 47°33' W 002°54'0 0.0
2016-Jun-15 12:33N 47°33' W 002°54'  

Dump ship's entire track history